sensor_id;sensor_type;location;lat;lon;timestamp;P1;durP1;ratioP1;P2;durP2;ratioP2
34196;SDS011;36594;45.192;5.722;2023-03-18T00:01:02;0.70;;;0.60;;
34196;SDS011;36594;45.192;5.722;2023-03-18T00:03:52;0.65;;;0.65;;
34196;SDS011;36594;45.192;5.722;2023-03-18T00:06:41;2.27;;;0.60;;
34196;SDS011;36594;45.192;5.722;2023-03-18T00:09:30;0.50;;;0.50;;
34196;SDS011;36594;45.192;5.722;2023-03-18T00:12:18;0.70;;;0.70;;
34196;SDS011;36594;45.192;5.722;2023-03-18T00:15:08;0.70;;;0.70;;
34196;SDS011;36594;45.192;5.722;2023-03-18T00:17:58;0.50;;;0.50;;
34196;SDS011;36594;45.192;5.722;2023-03-18T00:20:47;0.72;;;0.72;;
34196;SDS011;36594;45.192;5.722;2023-03-18T00:23:35;0.72;;;0.72;;
34196;SDS011;36594;45.192;5.722;2023-03-18T00:26:24;0.55;;;0.53;;
34196;SDS011;36594;45.192;5.722;2023-03-18T00:29:14;0.60;;;0.60;;
34196;SDS011;36594;45.192;5.722;2023-03-18T00:32:02;1.07;;;0.70;;
34196;SDS011;36594;45.192;5.722;2023-03-18T00:34:52;1.00;;;0.68;;
34196;SDS011;36594;45.192;5.722;2023-03-18T00:37:43;0.50;;;0.50;;
34196;SDS011;36594;45.192;5.722;2023-03-18T00:40:33;0.90;;;0.62;;
34196;SDS011;36594;45.192;5.722;2023-03-18T00:43:30;0.60;;;0.60;;
34196;SDS011;36594;45.192;5.722;2023-03-18T00:46:22;0.53;;;0.53;;
34196;SDS011;36594;45.192;5.722;2023-03-18T00:49:13;0.70;;;0.70;;
34196;SDS011;36594;45.192;5.722;2023-03-18T00:52:03;1.50;;;0.70;;
34196;SDS011;36594;45.192;5.722;2023-03-18T00:54:52;0.50;;;0.50;;
34196;SDS011;36594;45.192;5.722;2023-03-18T00:57:41;0.68;;;0.68;;
34196;SDS011;36594;45.192;5.722;2023-03-18T01:00:30;0.75;;;0.53;;
34196;SDS011;36594;45.192;5.722;2023-03-18T01:03:18;0.70;;;0.70;;
34196;SDS011;36594;45.192;5.722;2023-03-18T01:06:09;0.57;;;0.57;;
34196;SDS011;36594;45.192;5.722;2023-03-18T01:09:03;2.20;;;0.75;;
34196;SDS011;36594;45.192;5.722;2023-03-18T01:11:52;0.50;;;0.50;;
34196;SDS011;36594;45.192;5.722;2023-03-18T01:14:41;0.75;;;0.75;;
34196;SDS011;36594;45.192;5.722;2023-03-18T01:17:29;0.47;;;0.47;;
34196;SDS011;36594;45.192;5.722;2023-03-18T01:20:18;0.57;;;0.57;;
34196;SDS011;36594;45.192;5.722;2023-03-18T01:23:10;0.60;;;0.60;;
34196;SDS011;36594;45.192;5.722;2023-03-18T01:25:59;0.50;;;0.50;;
34196;SDS011;36594;45.192;5.722;2023-03-18T01:28:50;0.53;;;0.53;;
34196;SDS011;36594;45.192;5.722;2023-03-18T01:31:39;0.70;;;0.70;;
34196;SDS011;36594;45.192;5.722;2023-03-18T01:34:30;0.90;;;0.68;;
34196;SDS011;36594;45.192;5.722;2023-03-18T01:37:19;0.47;;;0.47;;
34196;SDS011;36594;45.192;5.722;2023-03-18T01:40:10;0.90;;;0.50;;
34196;SDS011;36594;45.192;5.722;2023-03-18T01:43:10;0.72;;;0.60;;
34196;SDS011;36594;45.192;5.722;2023-03-18T01:52:22;0.50;;;0.50;;
34196;SDS011;36594;45.192;5.722;2023-03-18T01:55:15;0.68;;;0.68;;
34196;SDS011;36594;45.192;5.722;2023-03-18T01:58:09;0.50;;;0.50;;
34196;SDS011;36594;45.192;5.722;2023-03-18T02:01:08;0.55;;;0.55;;
34196;SDS011;36594;45.192;5.722;2023-03-18T02:04:06;0.60;;;0.60;;
34196;SDS011;36594;45.192;5.722;2023-03-18T02:06:58;0.60;;;0.60;;
34196;SDS011;36594;45.192;5.722;2023-03-18T02:09:46;0.80;;;0.60;;
34196;SDS011;36594;45.192;5.722;2023-03-18T02:12:38;0.50;;;0.50;;
34196;SDS011;36594;45.192;5.722;2023-03-18T02:15:31;0.40;;;0.40;;
34196;SDS011;36594;45.192;5.722;2023-03-18T02:18:26;0.53;;;0.53;;
34196;SDS011;36594;45.192;5.722;2023-03-18T02:21:14;0.60;;;0.60;;
34196;SDS011;36594;45.192;5.722;2023-03-18T02:24:17;0.60;;;0.60;;
34196;SDS011;36594;45.192;5.722;2023-03-18T02:27:16;0.55;;;0.55;;
34196;SDS011;36594;45.192;5.722;2023-03-18T02:30:18;0.60;;;0.60;;
34196;SDS011;36594;45.192;5.722;2023-03-18T02:33:13;0.75;;;0.75;;
34196;SDS011;36594;45.192;5.722;2023-03-18T02:36:06;0.60;;;0.60;;
34196;SDS011;36594;45.192;5.722;2023-03-18T02:39:00;0.47;;;0.47;;
34196;SDS011;36594;45.192;5.722;2023-03-18T02:41:50;0.50;;;0.45;;
34196;SDS011;36594;45.192;5.722;2023-03-18T02:44:40;0.70;;;0.70;;
34196;SDS011;36594;45.192;5.722;2023-03-18T02:47:49;0.57;;;0.50;;
34196;SDS011;36594;45.192;5.722;2023-03-18T02:50:39;0.70;;;0.70;;
34196;SDS011;36594;45.192;5.722;2023-03-18T02:53:29;0.70;;;0.70;;
34196;SDS011;36594;45.192;5.722;2023-03-18T02:56:18;0.53;;;0.53;;
34196;SDS011;36594;45.192;5.722;2023-03-18T02:59:07;0.88;;;0.62;;
34196;SDS011;36594;45.192;5.722;2023-03-18T03:01:56;0.50;;;0.50;;
34196;SDS011;36594;45.192;5.722;2023-03-18T03:04:45;0.70;;;0.70;;
34196;SDS011;36594;45.192;5.722;2023-03-18T03:07:35;0.40;;;0.40;;
34196;SDS011;36594;45.192;5.722;2023-03-18T03:10:25;0.40;;;0.40;;
34196;SDS011;36594;45.192;5.722;2023-03-18T03:13:14;0.50;;;0.50;;
34196;SDS011;36594;45.192;5.722;2023-03-18T03:16:05;0.60;;;0.60;;
34196;SDS011;36594;45.192;5.722;2023-03-18T03:18:54;0.40;;;0.40;;
34196;SDS011;36594;45.192;5.722;2023-03-18T03:21:42;0.70;;;0.70;;
34196;SDS011;36594;45.192;5.722;2023-03-18T03:24:31;0.47;;;0.47;;
34196;SDS011;36594;45.192;5.722;2023-03-18T03:27:19;0.40;;;0.40;;
34196;SDS011;36594;45.192;5.722;2023-03-18T03:30:09;0.50;;;0.50;;
34196;SDS011;36594;45.192;5.722;2023-03-18T03:33:00;0.70;;;0.40;;
34196;SDS011;36594;45.192;5.722;2023-03-18T03:35:49;1.35;;;0.70;;
34196;SDS011;36594;45.192;5.722;2023-03-18T03:38:37;0.67;;;0.67;;
34196;SDS011;36594;45.192;5.722;2023-03-18T03:41:27;0.53;;;0.53;;
34196;SDS011;36594;45.192;5.722;2023-03-18T03:44:15;0.50;;;0.50;;
34196;SDS011;36594;45.192;5.722;2023-03-18T03:47:05;0.57;;;0.57;;
34196;SDS011;36594;45.192;5.722;2023-03-18T03:49:54;0.60;;;0.50;;
34196;SDS011;36594;45.192;5.722;2023-03-18T03:52:43;0.47;;;0.47;;
34196;SDS011;36594;45.192;5.722;2023-03-18T03:55:32;0.40;;;0.40;;
34196;SDS011;36594;45.192;5.722;2023-03-18T03:58:21;0.57;;;0.50;;
34196;SDS011;36594;45.192;5.722;2023-03-18T04:01:10;0.47;;;0.47;;
34196;SDS011;36594;45.192;5.722;2023-03-18T04:03:59;0.50;;;0.50;;
34196;SDS011;36594;45.192;5.722;2023-03-18T04:06:51;0.50;;;0.50;;
34196;SDS011;36594;45.192;5.722;2023-03-18T04:09:40;1.00;;;0.50;;
34196;SDS011;36594;45.192;5.722;2023-03-18T04:12:29;1.95;;;0.53;;
34196;SDS011;36594;45.192;5.722;2023-03-18T04:15:19;0.50;;;0.50;;
34196;SDS011;36594;45.192;5.722;2023-03-18T04:18:09;0.60;;;0.60;;
34196;SDS011;36594;45.192;5.722;2023-03-18T04:21:00;0.53;;;0.53;;
34196;SDS011;36594;45.192;5.722;2023-03-18T04:23:50;0.60;;;0.57;;
34196;SDS011;36594;45.192;5.722;2023-03-18T04:26:39;0.40;;;0.40;;
34196;SDS011;36594;45.192;5.722;2023-03-18T04:29:28;0.30;;;0.30;;
34196;SDS011;36594;45.192;5.722;2023-03-18T04:32:17;0.50;;;0.50;;
34196;SDS011;36594;45.192;5.722;2023-03-18T04:35:06;0.90;;;0.47;;
34196;SDS011;36594;45.192;5.722;2023-03-18T04:37:56;0.60;;;0.45;;
34196;SDS011;36594;45.192;5.722;2023-03-18T04:40:45;1.70;;;0.62;;
34196;SDS011;36594;45.192;5.722;2023-03-18T04:43:34;1.00;;;0.60;;
34196;SDS011;36594;45.192;5.722;2023-03-18T04:46:23;0.80;;;0.60;;
34196;SDS011;36594;45.192;5.722;2023-03-18T04:49:14;0.40;;;0.40;;
34196;SDS011;36594;45.192;5.722;2023-03-18T04:52:04;0.50;;;0.50;;
34196;SDS011;36594;45.192;5.722;2023-03-18T04:54:53;0.50;;;0.50;;
34196;SDS011;36594;45.192;5.722;2023-03-18T04:57:42;0.40;;;0.40;;
34196;SDS011;36594;45.192;5.722;2023-03-18T05:00:33;0.90;;;0.50;;
34196;SDS011;36594;45.192;5.722;2023-03-18T05:03:23;0.37;;;0.37;;
34196;SDS011;36594;45.192;5.722;2023-03-18T05:06:19;0.50;;;0.50;;
34196;SDS011;36594;45.192;5.722;2023-03-18T05:09:11;0.53;;;0.53;;
34196;SDS011;36594;45.192;5.722;2023-03-18T05:12:00;0.47;;;0.47;;
34196;SDS011;36594;45.192;5.722;2023-03-18T05:14:51;0.50;;;0.50;;
34196;SDS011;36594;45.192;5.722;2023-03-18T05:17:40;0.55;;;0.55;;
34196;SDS011;36594;45.192;5.722;2023-03-18T05:20:28;0.35;;;0.35;;
34196;SDS011;36594;45.192;5.722;2023-03-18T05:23:17;0.40;;;0.40;;
34196;SDS011;36594;45.192;5.722;2023-03-18T05:26:08;0.47;;;0.47;;
34196;SDS011;36594;45.192;5.722;2023-03-18T05:28:58;0.40;;;0.40;;
34196;SDS011;36594;45.192;5.722;2023-03-18T05:31:49;0.40;;;0.40;;
34196;SDS011;36594;45.192;5.722;2023-03-18T05:34:38;0.70;;;0.50;;
34196;SDS011;36594;45.192;5.722;2023-03-18T05:37:28;0.42;;;0.42;;
34196;SDS011;36594;45.192;5.722;2023-03-18T05:40:18;0.30;;;0.30;;
34196;SDS011;36594;45.192;5.722;2023-03-18T05:43:20;0.57;;;0.57;;
34196;SDS011;36594;45.192;5.722;2023-03-18T05:46:11;0.40;;;0.40;;
34196;SDS011;36594;45.192;5.722;2023-03-18T05:49:01;0.50;;;0.50;;
34196;SDS011;36594;45.192;5.722;2023-03-18T05:51:52;0.50;;;0.50;;
34196;SDS011;36594;45.192;5.722;2023-03-18T05:54:42;0.50;;;0.50;;
34196;SDS011;36594;45.192;5.722;2023-03-18T05:57:32;0.47;;;0.47;;
34196;SDS011;36594;45.192;5.722;2023-03-18T06:00:22;0.47;;;0.40;;
34196;SDS011;36594;45.192;5.722;2023-03-18T06:03:11;0.50;;;0.50;;
34196;SDS011;36594;45.192;5.722;2023-03-18T06:06:00;0.40;;;0.40;;
34196;SDS011;36594;45.192;5.722;2023-03-18T06:08:49;0.50;;;0.50;;
34196;SDS011;36594;45.192;5.722;2023-03-18T06:11:38;0.80;;;0.47;;
34196;SDS011;36594;45.192;5.722;2023-03-18T06:14:28;0.40;;;0.40;;
34196;SDS011;36594;45.192;5.722;2023-03-18T06:17:19;0.40;;;0.40;;
34196;SDS011;36594;45.192;5.722;2023-03-18T06:20:10;0.40;;;0.40;;
34196;SDS011;36594;45.192;5.722;2023-03-18T06:23:00;0.40;;;0.40;;
34196;SDS011;36594;45.192;5.722;2023-03-18T06:25:49;0.50;;;0.50;;
34196;SDS011;36594;45.192;5.722;2023-03-18T06:28:39;0.40;;;0.40;;
34196;SDS011;36594;45.192;5.722;2023-03-18T06:31:29;0.50;;;0.50;;
34196;SDS011;36594;45.192;5.722;2023-03-18T06:34:18;0.50;;;0.45;;
34196;SDS011;36594;45.192;5.722;2023-03-18T06:37:07;0.42;;;0.42;;
34196;SDS011;36594;45.192;5.722;2023-03-18T06:39:56;0.70;;;0.40;;
34196;SDS011;36594;45.192;5.722;2023-03-18T06:42:45;0.40;;;0.40;;
34196;SDS011;36594;45.192;5.722;2023-03-18T06:45:37;0.40;;;0.40;;
34196;SDS011;36594;45.192;5.722;2023-03-18T06:48:27;0.53;;;0.47;;
34196;SDS011;36594;45.192;5.722;2023-03-18T06:51:16;0.47;;;0.47;;
34196;SDS011;36594;45.192;5.722;2023-03-18T06:54:04;0.70;;;0.50;;
34196;SDS011;36594;45.192;5.722;2023-03-18T06:56:53;0.33;;;0.33;;
34196;SDS011;36594;45.192;5.722;2023-03-18T06:59:42;0.50;;;0.50;;
34196;SDS011;36594;45.192;5.722;2023-03-18T07:02:31;0.50;;;0.50;;
34196;SDS011;36594;45.192;5.722;2023-03-18T07:05:20;2.80;;;0.40;;
34196;SDS011;36594;45.192;5.722;2023-03-18T07:08:09;0.33;;;0.33;;
34196;SDS011;36594;45.192;5.722;2023-03-18T07:10:58;0.60;;;0.50;;
34196;SDS011;36594;45.192;5.722;2023-03-18T07:13:48;1.17;;;0.40;;
34196;SDS011;36594;45.192;5.722;2023-03-18T07:16:38;0.50;;;0.50;;
34196;SDS011;36594;45.192;5.722;2023-03-18T07:19:27;0.60;;;0.40;;
34196;SDS011;36594;45.192;5.722;2023-03-18T07:22:17;0.33;;;0.33;;
34196;SDS011;36594;45.192;5.722;2023-03-18T07:25:07;0.30;;;0.30;;
34196;SDS011;36594;45.192;5.722;2023-03-18T07:27:57;1.22;;;0.50;;
34196;SDS011;36594;45.192;5.722;2023-03-18T07:30:50;0.50;;;0.50;;
34196;SDS011;36594;45.192;5.722;2023-03-18T07:33:40;0.50;;;0.50;;
34196;SDS011;36594;45.192;5.722;2023-03-18T07:36:28;0.60;;;0.60;;
34196;SDS011;36594;45.192;5.722;2023-03-18T07:39:17;0.50;;;0.50;;
34196;SDS011;36594;45.192;5.722;2023-03-18T07:42:06;0.40;;;0.40;;
34196;SDS011;36594;45.192;5.722;2023-03-18T07:44:54;0.40;;;0.40;;
34196;SDS011;36594;45.192;5.722;2023-03-18T07:47:43;0.37;;;0.37;;
34196;SDS011;36594;45.192;5.722;2023-03-18T07:50:31;0.70;;;0.30;;
34196;SDS011;36594;45.192;5.722;2023-03-18T07:53:20;0.60;;;0.60;;
34196;SDS011;36594;45.192;5.722;2023-03-18T07:56:08;0.68;;;0.65;;
34196;SDS011;36594;45.192;5.722;2023-03-18T07:58:57;0.93;;;0.80;;
34196;SDS011;36594;45.192;5.722;2023-03-18T08:01:46;0.70;;;0.70;;
34196;SDS011;36594;45.192;5.722;2023-03-18T08:04:34;0.80;;;0.80;;
34196;SDS011;36594;45.192;5.722;2023-03-18T08:07:23;0.73;;;0.73;;
34196;SDS011;36594;45.192;5.722;2023-03-18T08:10:11;0.60;;;0.60;;
34196;SDS011;36594;45.192;5.722;2023-03-18T08:13:00;0.40;;;0.40;;
34196;SDS011;36594;45.192;5.722;2023-03-18T08:15:49;0.57;;;0.57;;
34196;SDS011;36594;45.192;5.722;2023-03-18T08:18:38;0.47;;;0.47;;
34196;SDS011;36594;45.192;5.722;2023-03-18T08:21:29;0.70;;;0.70;;
34196;SDS011;36594;45.192;5.722;2023-03-18T08:24:17;0.88;;;0.60;;
34196;SDS011;36594;45.192;5.722;2023-03-18T08:27:05;0.60;;;0.60;;
34196;SDS011;36594;45.192;5.722;2023-03-18T08:29:54;0.57;;;0.50;;
34196;SDS011;36594;45.192;5.722;2023-03-18T08:32:44;0.60;;;0.60;;
34196;SDS011;36594;45.192;5.722;2023-03-18T08:35:32;0.70;;;0.70;;
34196;SDS011;36594;45.192;5.722;2023-03-18T08:38:22;0.80;;;0.70;;
34196;SDS011;36594;45.192;5.722;2023-03-18T08:41:11;0.50;;;0.50;;
34196;SDS011;36594;45.192;5.722;2023-03-18T08:44:00;0.60;;;0.40;;
34196;SDS011;36594;45.192;5.722;2023-03-18T08:46:51;0.42;;;0.42;;
34196;SDS011;36594;45.192;5.722;2023-03-18T08:49:39;0.50;;;0.50;;
34196;SDS011;36594;45.192;5.722;2023-03-18T08:52:28;1.17;;;0.70;;
34196;SDS011;36594;45.192;5.722;2023-03-18T08:55:18;0.57;;;0.57;;
34196;SDS011;36594;45.192;5.722;2023-03-18T08:58:07;0.50;;;0.50;;
34196;SDS011;36594;45.192;5.722;2023-03-18T09:00:56;0.65;;;0.62;;
34196;SDS011;36594;45.192;5.722;2023-03-18T09:03:45;0.75;;;0.60;;
34196;SDS011;36594;45.192;5.722;2023-03-18T09:06:33;0.50;;;0.50;;
34196;SDS011;36594;45.192;5.722;2023-03-18T09:09:22;2.80;;;0.53;;
34196;SDS011;36594;45.192;5.722;2023-03-18T09:12:10;1.92;;;0.70;;
34196;SDS011;36594;45.192;5.722;2023-03-18T09:14:59;0.62;;;0.55;;
34196;SDS011;36594;45.192;5.722;2023-03-18T09:17:48;2.33;;;0.60;;
34196;SDS011;36594;45.192;5.722;2023-03-18T09:20:37;2.10;;;0.82;;
34196;SDS011;36594;45.192;5.722;2023-03-18T09:23:27;0.80;;;0.65;;
34196;SDS011;36594;45.192;5.722;2023-03-18T09:26:15;1.87;;;1.00;;
34196;SDS011;36594;45.192;5.722;2023-03-18T09:29:04;0.78;;;0.78;;
34196;SDS011;36594;45.192;5.722;2023-03-18T09:31:53;1.00;;;0.90;;
34196;SDS011;36594;45.192;5.722;2023-03-18T09:34:41;1.52;;;0.93;;
34196;SDS011;36594;45.192;5.722;2023-03-18T09:37:30;0.82;;;0.80;;
34196;SDS011;36594;45.192;5.722;2023-03-18T09:40:26;1.20;;;0.90;;
34196;SDS011;36594;45.192;5.722;2023-03-18T09:43:19;0.88;;;0.88;;
34196;SDS011;36594;45.192;5.722;2023-03-18T09:46:31;1.17;;;1.07;;
34196;SDS011;36594;45.192;5.722;2023-03-18T09:52:49;2.42;;;1.00;;
34196;SDS011;36594;45.192;5.722;2023-03-18T09:55:42;1.00;;;1.00;;
34196;SDS011;36594;45.192;5.722;2023-03-18T10:01:41;2.98;;;0.93;;
34196;SDS011;36594;45.192;5.722;2023-03-18T10:04:34;1.00;;;1.00;;
34196;SDS011;36594;45.192;5.722;2023-03-18T10:07:28;1.10;;;1.00;;
34196;SDS011;36594;45.192;5.722;2023-03-18T10:10:23;2.40;;;0.90;;
34196;SDS011;36594;45.192;5.722;2023-03-18T10:13:14;0.90;;;0.90;;
34196;SDS011;36594;45.192;5.722;2023-03-18T10:16:04;1.40;;;1.30;;
34196;SDS011;36594;45.192;5.722;2023-03-18T10:18:55;2.40;;;1.10;;
34196;SDS011;36594;45.192;5.722;2023-03-18T10:21:49;0.85;;;0.80;;
34196;SDS011;36594;45.192;5.722;2023-03-18T10:24:55;1.27;;;0.80;;
34196;SDS011;36594;45.192;5.722;2023-03-18T10:34:22;0.90;;;0.90;;
34196;SDS011;36594;45.192;5.722;2023-03-18T10:40:21;1.15;;;1.15;;
34196;SDS011;36594;45.192;5.722;2023-03-18T10:43:13;1.25;;;1.10;;
34196;SDS011;36594;45.192;5.722;2023-03-18T10:46:03;2.12;;;1.25;;
34196;SDS011;36594;45.192;5.722;2023-03-18T10:49:00;1.40;;;1.30;;
34196;SDS011;36594;45.192;5.722;2023-03-18T10:51:54;0.93;;;0.93;;
34196;SDS011;36594;45.192;5.722;2023-03-18T10:54:47;1.10;;;1.00;;
34196;SDS011;36594;45.192;5.722;2023-03-18T10:57:39;1.20;;;1.10;;
34196;SDS011;36594;45.192;5.722;2023-03-18T11:00:30;1.40;;;1.00;;
34196;SDS011;36594;45.192;5.722;2023-03-18T11:03:21;1.40;;;1.00;;
34196;SDS011;36594;45.192;5.722;2023-03-18T11:06:18;2.50;;;1.27;;
34196;SDS011;36594;45.192;5.722;2023-03-18T11:09:28;2.22;;;1.22;;
34196;SDS011;36594;45.192;5.722;2023-03-18T11:12:24;1.20;;;1.10;;
34196;SDS011;36594;45.192;5.722;2023-03-18T11:15:05;1.17;;;1.10;;
34196;SDS011;36594;45.192;5.722;2023-03-18T11:17:57;1.65;;;1.10;;
34196;SDS011;36594;45.192;5.722;2023-03-18T11:20:57;3.00;;;1.10;;
34196;SDS011;36594;45.192;5.722;2023-03-18T11:23:55;1.33;;;1.23;;
34196;SDS011;36594;45.192;5.722;2023-03-18T11:26:55;2.98;;;1.00;;
34196;SDS011;36594;45.192;5.722;2023-03-18T11:29:55;0.90;;;0.90;;
34196;SDS011;36594;45.192;5.722;2023-03-18T11:32:51;0.90;;;0.90;;
34196;SDS011;36594;45.192;5.722;2023-03-18T11:35:56;1.57;;;0.88;;
34196;SDS011;36594;45.192;5.722;2023-03-18T11:38:39;1.60;;;1.12;;
34196;SDS011;36594;45.192;5.722;2023-03-18T11:41:28;2.40;;;0.95;;
34196;SDS011;36594;45.192;5.722;2023-03-18T11:44:18;1.12;;;1.05;;
34196;SDS011;36594;45.192;5.722;2023-03-18T11:47:12;0.90;;;0.90;;
34196;SDS011;36594;45.192;5.722;2023-03-18T11:50:18;1.67;;;1.15;;
34196;SDS011;36594;45.192;5.722;2023-03-18T11:53:15;0.90;;;0.90;;
34196;SDS011;36594;45.192;5.722;2023-03-18T11:56:13;1.30;;;1.20;;
34196;SDS011;36594;45.192;5.722;2023-03-18T12:08:36;3.20;;;1.40;;
34196;SDS011;36594;45.192;5.722;2023-03-18T12:11:44;1.80;;;1.10;;
34196;SDS011;36594;45.192;5.722;2023-03-18T12:14:44;1.25;;;1.17;;
34196;SDS011;36594;45.192;5.722;2023-03-18T12:17:40;0.98;;;0.98;;
34196;SDS011;36594;45.192;5.722;2023-03-18T12:20:32;1.05;;;0.95;;
34196;SDS011;36594;45.192;5.722;2023-03-18T12:23:48;1.62;;;1.10;;
34196;SDS011;36594;45.192;5.722;2023-03-18T12:26:56;1.32;;;1.10;;
34196;SDS011;36594;45.192;5.722;2023-03-18T12:29:56;1.10;;;1.10;;
34196;SDS011;36594;45.192;5.722;2023-03-18T12:38:40;1.40;;;0.97;;
34196;SDS011;36594;45.192;5.722;2023-03-18T12:42:00;1.10;;;1.07;;
34196;SDS011;36594;45.192;5.722;2023-03-18T12:44:59;1.40;;;1.17;;
34196;SDS011;36594;45.192;5.722;2023-03-18T12:47:52;1.03;;;1.03;;
34196;SDS011;36594;45.192;5.722;2023-03-18T12:50:46;0.98;;;0.98;;
34196;SDS011;36594;45.192;5.722;2023-03-18T12:53:39;1.27;;;1.20;;
34196;SDS011;36594;45.192;5.722;2023-03-18T12:56:32;1.05;;;1.05;;
34196;SDS011;36594;45.192;5.722;2023-03-18T13:11:58;1.35;;;1.25;;
34196;SDS011;36594;45.192;5.722;2023-03-18T13:15:00;2.75;;;1.20;;
34196;SDS011;36594;45.192;5.722;2023-03-18T13:17:55;1.27;;;1.20;;
34196;SDS011;36594;45.192;5.722;2023-03-18T13:20:45;1.75;;;1.20;;
34196;SDS011;36594;45.192;5.722;2023-03-18T13:39:47;1.15;;;1.00;;
34196;SDS011;36594;45.192;5.722;2023-03-18T13:42:58;0.98;;;0.98;;
34196;SDS011;36594;45.192;5.722;2023-03-18T13:45:52;1.30;;;1.20;;
34196;SDS011;36594;45.192;5.722;2023-03-18T13:48:39;1.10;;;1.00;;
34196;SDS011;36594;45.192;5.722;2023-03-18T13:54:19;0.93;;;0.88;;
34196;SDS011;36594;45.192;5.722;2023-03-18T13:57:23;1.13;;;1.10;;
34196;SDS011;36594;45.192;5.722;2023-03-18T14:00:22;1.50;;;1.10;;
34196;SDS011;36594;45.192;5.722;2023-03-18T14:08:58;0.90;;;0.90;;
34196;SDS011;36594;45.192;5.722;2023-03-18T14:11:52;1.05;;;0.93;;
34196;SDS011;36594;45.192;5.722;2023-03-18T14:15:22;1.72;;;1.27;;
34196;SDS011;36594;45.192;5.722;2023-03-18T14:17:54;0.90;;;0.90;;
34196;SDS011;36594;45.192;5.722;2023-03-18T14:20:44;1.27;;;1.17;;
34196;SDS011;36594;45.192;5.722;2023-03-18T14:23:38;1.10;;;1.10;;
34196;SDS011;36594;45.192;5.722;2023-03-18T14:26:28;1.50;;;1.00;;
34196;SDS011;36594;45.192;5.722;2023-03-18T14:29:28;1.15;;;1.05;;
34196;SDS011;36594;45.192;5.722;2023-03-18T14:35:26;1.85;;;0.93;;
34196;SDS011;36594;45.192;5.722;2023-03-18T14:38:24;0.90;;;0.90;;
34196;SDS011;36594;45.192;5.722;2023-03-18T14:41:22;1.10;;;1.05;;
34196;SDS011;36594;45.192;5.722;2023-03-18T14:47:42;1.32;;;1.00;;
34196;SDS011;36594;45.192;5.722;2023-03-18T14:56:21;1.35;;;1.25;;
34196;SDS011;36594;45.192;5.722;2023-03-18T14:59:17;0.98;;;0.98;;
34196;SDS011;36594;45.192;5.722;2023-03-18T15:02:03;0.80;;;0.67;;
34196;SDS011;36594;45.192;5.722;2023-03-18T15:04:55;1.00;;;1.00;;
34196;SDS011;36594;45.192;5.722;2023-03-18T15:07:49;1.07;;;1.07;;
34196;SDS011;36594;45.192;5.722;2023-03-18T15:10:38;0.85;;;0.85;;
34196;SDS011;36594;45.192;5.722;2023-03-18T15:13:28;1.30;;;0.90;;
34196;SDS011;36594;45.192;5.722;2023-03-18T15:16:17;1.90;;;0.90;;
34196;SDS011;36594;45.192;5.722;2023-03-18T15:19:09;0.90;;;0.90;;
34196;SDS011;36594;45.192;5.722;2023-03-18T15:22:00;1.10;;;1.10;;
34196;SDS011;36594;45.192;5.722;2023-03-18T15:24:51;1.03;;;1.00;;
34196;SDS011;36594;45.192;5.722;2023-03-18T15:27:41;0.97;;;0.97;;
34196;SDS011;36594;45.192;5.722;2023-03-18T15:30:31;0.80;;;0.80;;
34196;SDS011;36594;45.192;5.722;2023-03-18T15:33:22;1.42;;;1.20;;
34196;SDS011;36594;45.192;5.722;2023-03-18T15:36:13;0.93;;;0.93;;
34196;SDS011;36594;45.192;5.722;2023-03-18T15:39:14;1.07;;;1.00;;
34196;SDS011;36594;45.192;5.722;2023-03-18T15:42:16;1.10;;;1.10;;
34196;SDS011;36594;45.192;5.722;2023-03-18T15:45:08;2.33;;;1.10;;
34196;SDS011;36594;45.192;5.722;2023-03-18T15:48:01;1.10;;;1.00;;
34196;SDS011;36594;45.192;5.722;2023-03-18T15:50:54;1.87;;;1.02;;
34196;SDS011;36594;45.192;5.722;2023-03-18T15:53:49;1.42;;;1.10;;
34196;SDS011;36594;45.192;5.722;2023-03-18T15:56:42;1.10;;;1.00;;
34196;SDS011;36594;45.192;5.722;2023-03-18T15:59:33;1.35;;;1.00;;
34196;SDS011;36594;45.192;5.722;2023-03-18T16:02:22;1.05;;;1.05;;
34196;SDS011;36594;45.192;5.722;2023-03-18T16:08:08;0.98;;;0.98;;
34196;SDS011;36594;45.192;5.722;2023-03-18T16:11:00;0.80;;;0.80;;
34196;SDS011;36594;45.192;5.722;2023-03-18T16:13:49;1.70;;;0.90;;
34196;SDS011;36594;45.192;5.722;2023-03-18T16:16:38;1.47;;;1.15;;
34196;SDS011;36594;45.192;5.722;2023-03-18T16:19:27;0.80;;;0.80;;
34196;SDS011;36594;45.192;5.722;2023-03-18T16:22:16;0.95;;;0.95;;
34196;SDS011;36594;45.192;5.722;2023-03-18T16:25:04;0.93;;;0.90;;
34196;SDS011;36594;45.192;5.722;2023-03-18T16:27:56;0.80;;;0.80;;
34196;SDS011;36594;45.192;5.722;2023-03-18T16:30:46;0.90;;;0.90;;
34196;SDS011;36594;45.192;5.722;2023-03-18T16:33:38;0.82;;;0.82;;
34196;SDS011;36594;45.192;5.722;2023-03-18T16:36:28;0.88;;;0.88;;
34196;SDS011;36594;45.192;5.722;2023-03-18T16:39:25;0.80;;;0.80;;
34196;SDS011;36594;45.192;5.722;2023-03-18T16:42:12;0.88;;;0.85;;
34196;SDS011;36594;45.192;5.722;2023-03-18T16:47:20;1.60;;;0.80;;
34196;SDS011;36594;45.192;5.722;2023-03-18T16:50:27;0.93;;;0.80;;
34196;SDS011;36594;45.192;5.722;2023-03-18T16:53:19;0.62;;;0.62;;
34196;SDS011;36594;45.192;5.722;2023-03-18T16:56:15;0.80;;;0.80;;
34196;SDS011;36594;45.192;5.722;2023-03-18T16:59:13;1.55;;;0.95;;
34196;SDS011;36594;45.192;5.722;2023-03-18T17:02:01;0.88;;;0.88;;
34196;SDS011;36594;45.192;5.722;2023-03-18T17:04:51;1.40;;;0.80;;
34196;SDS011;36594;45.192;5.722;2023-03-18T17:07:39;1.05;;;1.00;;
34196;SDS011;36594;45.192;5.722;2023-03-18T17:10:27;0.60;;;0.60;;
34196;SDS011;36594;45.192;5.722;2023-03-18T17:13:20;0.62;;;0.62;;
34196;SDS011;36594;45.192;5.722;2023-03-18T17:16:17;1.40;;;0.80;;
34196;SDS011;36594;45.192;5.722;2023-03-18T17:19:07;0.70;;;0.70;;
34196;SDS011;36594;45.192;5.722;2023-03-18T17:21:58;1.30;;;0.80;;
34196;SDS011;36594;45.192;5.722;2023-03-18T17:24:47;1.00;;;1.00;;
34196;SDS011;36594;45.192;5.722;2023-03-18T17:27:38;0.85;;;0.85;;
34196;SDS011;36594;45.192;5.722;2023-03-18T17:33:29;0.80;;;0.80;;
34196;SDS011;36594;45.192;5.722;2023-03-18T17:36:19;0.70;;;0.70;;
34196;SDS011;36594;45.192;5.722;2023-03-18T17:39:07;0.90;;;0.57;;
34196;SDS011;36594;45.192;5.722;2023-03-18T17:41:55;0.62;;;0.62;;
34196;SDS011;36594;45.192;5.722;2023-03-18T17:44:44;0.80;;;0.80;;
34196;SDS011;36594;45.192;5.722;2023-03-18T17:47:32;0.72;;;0.72;;
34196;SDS011;36594;45.192;5.722;2023-03-18T17:50:22;0.90;;;0.90;;
34196;SDS011;36594;45.192;5.722;2023-03-18T17:53:55;0.70;;;0.70;;
34196;SDS011;36594;45.192;5.722;2023-03-18T17:56:15;0.78;;;0.78;;
34196;SDS011;36594;45.192;5.722;2023-03-18T17:59:07;0.68;;;0.68;;
34196;SDS011;36594;45.192;5.722;2023-03-18T18:02:02;0.85;;;0.85;;
34196;SDS011;36594;45.192;5.722;2023-03-18T18:04:50;0.70;;;0.70;;
34196;SDS011;36594;45.192;5.722;2023-03-18T18:07:38;1.10;;;0.70;;
34196;SDS011;36594;45.192;5.722;2023-03-18T18:10:30;0.62;;;0.62;;
34196;SDS011;36594;45.192;5.722;2023-03-18T18:13:19;0.60;;;0.60;;
34196;SDS011;36594;45.192;5.722;2023-03-18T18:16:08;0.70;;;0.70;;
34196;SDS011;36594;45.192;5.722;2023-03-18T18:18:57;0.93;;;0.80;;
34196;SDS011;36594;45.192;5.722;2023-03-18T18:21:45;0.70;;;0.70;;
34196;SDS011;36594;45.192;5.722;2023-03-18T18:24:36;0.62;;;0.62;;
34196;SDS011;36594;45.192;5.722;2023-03-18T18:27:25;0.70;;;0.70;;
34196;SDS011;36594;45.192;5.722;2023-03-18T18:30:20;0.70;;;0.70;;
34196;SDS011;36594;45.192;5.722;2023-03-18T18:33:10;0.95;;;0.95;;
34196;SDS011;36594;45.192;5.722;2023-03-18T18:35:58;0.70;;;0.70;;
34196;SDS011;36594;45.192;5.722;2023-03-18T18:38:47;1.12;;;1.00;;
34196;SDS011;36594;45.192;5.722;2023-03-18T18:41:36;3.22;;;2.50;;
34196;SDS011;36594;45.192;5.722;2023-03-18T18:44:25;6.15;;;3.33;;
34196;SDS011;36594;45.192;5.722;2023-03-18T18:47:21;4.60;;;2.70;;
34196;SDS011;36594;45.192;5.722;2023-03-18T18:50:05;6.53;;;3.58;;